sensor_id;sensor_type;location;lat;lon;timestamp;pressure;altitude;pressure_sealevel;temperature;humidity
37848;BME280;23688;33.130;-117.188;2023-02-02T00:00:53;99974.03;;;15.81;39.17
37848;BME280;23688;33.130;-117.188;2023-02-02T00:03:20;99979.66;;;15.65;37.72
37848;BME280;23688;33.130;-117.188;2023-02-02T00:05:49;99979.03;;;15.43;37.64
37848;BME280;23688;33.130;-117.188;2023-02-02T00:08:17;99974.44;;;15.34;38.28
37848;BME280;23688;33.130;-117.188;2023-02-02T00:10:44;99973.78;;;15.43;39.86
37848;BME280;23688;33.130;-117.188;2023-02-02T00:13:11;99987.00;;;15.46;34.93
37848;BME280;23688;33.130;-117.188;2023-02-02T00:15:38;99990.16;;;15.36;35.68
37848;BME280;23688;33.130;-117.188;2023-02-02T00:18:05;100000.81;;;15.42;36.97
37848;BME280;23688;33.130;-117.188;2023-02-02T00:20:32;100003.84;;;15.27;35.54
37848;BME280;23688;33.130;-117.188;2023-02-02T00:23:01;99996.56;;;15.17;37.75
37848;BME280;23688;33.130;-117.188;2023-02-02T00:25:29;99986.75;;;15.10;37.75
37848;BME280;23688;33.130;-117.188;2023-02-02T00:27:56;99993.75;;;15.11;39.35
37848;BME280;23688;33.130;-117.188;2023-02-02T00:30:23;100002.19;;;15.29;41.71
37848;BME280;23688;33.130;-117.188;2023-02-02T00:32:50;99998.84;;;15.35;41.08
37848;BME280;23688;33.130;-117.188;2023-02-02T00:35:18;99999.78;;;15.66;40.59
37848;BME280;23688;33.130;-117.188;2023-02-02T00:37:44;100013.25;;;15.78;40.36
37848;BME280;23688;33.130;-117.188;2023-02-02T00:40:11;99999.16;;;15.74;38.52
37848;BME280;23688;33.130;-117.188;2023-02-02T00:42:37;100007.88;;;15.73;40.43
37848;BME280;23688;33.130;-117.188;2023-02-02T00:45:04;100010.31;;;15.99;42.22
37848;BME280;23688;33.130;-117.188;2023-02-02T00:47:48;100004.16;;;15.97;42.33
37848;BME280;23688;33.130;-117.188;2023-02-02T00:50:17;100003.13;;;15.92;41.74
37848;BME280;23688;33.130;-117.188;2023-02-02T00:52:44;100011.25;;;16.01;42.04
37848;BME280;23688;33.130;-117.188;2023-02-02T00:55:11;100026.81;;;15.95;41.44
37848;BME280;23688;33.130;-117.188;2023-02-02T00:57:38;100016.28;;;15.63;42.31
37848;BME280;23688;33.130;-117.188;2023-02-02T01:00:07;100027.25;;;15.23;44.06
37848;BME280;23688;33.130;-117.188;2023-02-02T01:02:34;100030.63;;;15.47;45.31
37848;BME280;23688;33.130;-117.188;2023-02-02T01:05:02;100041.84;;;15.72;45.40
37848;BME280;23688;33.130;-117.188;2023-02-02T01:07:28;100043.72;;;15.76;45.02
37848;BME280;23688;33.130;-117.188;2023-02-02T01:09:54;100037.38;;;15.69;44.60
37848;BME280;23688;33.130;-117.188;2023-02-02T01:12:21;100053.09;;;15.69;44.97
37848;BME280;23688;33.130;-117.188;2023-02-02T01:14:47;100054.69;;;15.64;45.59
37848;BME280;23688;33.130;-117.188;2023-02-02T01:17:13;100064.78;;;15.52;45.64
37848;BME280;23688;33.130;-117.188;2023-02-02T01:19:40;100064.56;;;15.46;45.26
37848;BME280;23688;33.130;-117.188;2023-02-02T01:22:10;100072.16;;;15.36;45.31
37848;BME280;23688;33.130;-117.188;2023-02-02T01:24:37;100069.97;;;15.22;44.56
37848;BME280;23688;33.130;-117.188;2023-02-02T01:27:04;100069.53;;;15.09;45.35
37848;BME280;23688;33.130;-117.188;2023-02-02T01:29:31;100068.88;;;14.89;45.05
37848;BME280;23688;33.130;-117.188;2023-02-02T01:31:57;100065.00;;;14.76;45.82
37848;BME280;23688;33.130;-117.188;2023-02-02T01:34:23;100073.47;;;14.69;46.26
37848;BME280;23688;33.130;-117.188;2023-02-02T01:36:50;100080.00;;;14.57;46.24
37848;BME280;23688;33.130;-117.188;2023-02-02T01:39:16;100063.44;;;14.32;46.96
37848;BME280;23688;33.130;-117.188;2023-02-02T01:41:42;100071.72;;;14.20;47.64
37848;BME280;23688;33.130;-117.188;2023-02-02T01:47:11;100086.22;;;13.88;49.06
37848;BME280;23688;33.130;-117.188;2023-02-02T01:49:39;100084.69;;;13.70;50.03
37848;BME280;23688;33.130;-117.188;2023-02-02T01:52:06;100090.06;;;13.53;51.26
37848;BME280;23688;33.130;-117.188;2023-02-02T01:54:41;100094.81;;;13.40;52.19
37848;BME280;23688;33.130;-117.188;2023-02-02T01:57:45;100100.69;;;13.35;52.50
37848;BME280;23688;33.130;-117.188;2023-02-02T02:00:08;100110.38;;;13.18;53.25
37848;BME280;23688;33.130;-117.188;2023-02-02T02:02:37;100101.13;;;13.03;54.28
37848;BME280;23688;33.130;-117.188;2023-02-02T02:05:05;100104.84;;;12.89;55.24
37848;BME280;23688;33.130;-117.188;2023-02-02T02:07:32;100097.06;;;12.68;56.43
37848;BME280;23688;33.130;-117.188;2023-02-02T02:09:59;100106.22;;;12.60;57.12
37848;BME280;23688;33.130;-117.188;2023-02-02T02:12:25;100103.22;;;12.51;57.51
37848;BME280;23688;33.130;-117.188;2023-02-02T02:14:52;100111.59;;;12.43;57.78
37848;BME280;23688;33.130;-117.188;2023-02-02T02:26:23;100124.44;;;12.00;55.39
37848;BME280;23688;33.130;-117.188;2023-02-02T02:29:13;100114.34;;;11.88;54.77
37848;BME280;23688;33.130;-117.188;2023-02-02T02:40:04;100128.34;;;11.54;52.30
37848;BME280;23688;33.130;-117.188;2023-02-02T02:42:38;100138.31;;;11.45;50.98
37848;BME280;23688;33.130;-117.188;2023-02-02T02:45:07;100137.94;;;11.38;51.37
37848;BME280;23688;33.130;-117.188;2023-02-02T02:47:35;100140.44;;;11.36;53.00
37848;BME280;23688;33.130;-117.188;2023-02-02T02:50:05;100153.41;;;11.34;52.99
37848;BME280;23688;33.130;-117.188;2023-02-02T02:52:32;100141.06;;;11.30;51.15
37848;BME280;23688;33.130;-117.188;2023-02-02T02:54:59;100141.19;;;11.16;50.78
37848;BME280;23688;33.130;-117.188;2023-02-02T02:57:31;100144.16;;;11.05;50.89
37848;BME280;23688;33.130;-117.188;2023-02-02T03:00:11;100144.44;;;10.93;49.40
37848;BME280;23688;33.130;-117.188;2023-02-02T03:08:14;100149.25;;;10.86;48.17
37848;BME280;23688;33.130;-117.188;2023-02-02T03:10:44;100150.63;;;10.79;44.69
37848;BME280;23688;33.130;-117.188;2023-02-02T03:13:13;100139.78;;;10.70;43.04
37848;BME280;23688;33.130;-117.188;2023-02-02T03:15:40;100141.50;;;10.69;43.33
37848;BME280;23688;33.130;-117.188;2023-02-02T03:18:07;100156.09;;;10.67;44.20
37848;BME280;23688;33.130;-117.188;2023-02-02T03:20:34;100159.38;;;10.63;45.69
37848;BME280;23688;33.130;-117.188;2023-02-02T03:23:00;100172.13;;;10.59;45.23
37848;BME280;23688;33.130;-117.188;2023-02-02T03:25:27;100155.97;;;10.48;45.63
37848;BME280;23688;33.130;-117.188;2023-02-02T03:27:53;100164.31;;;10.42;47.46
37848;BME280;23688;33.130;-117.188;2023-02-02T03:30:21;100165.69;;;10.36;46.76
37848;BME280;23688;33.130;-117.188;2023-02-02T03:32:48;100163.78;;;10.32;46.13
37848;BME280;23688;33.130;-117.188;2023-02-02T03:35:16;100181.22;;;10.34;46.26
37848;BME280;23688;33.130;-117.188;2023-02-02T03:37:42;100176.28;;;10.24;46.54
37848;BME280;23688;33.130;-117.188;2023-02-02T03:40:09;100188.94;;;10.18;44.35
37848;BME280;23688;33.130;-117.188;2023-02-02T03:42:35;100187.41;;;10.05;44.09
37848;BME280;23688;33.130;-117.188;2023-02-02T03:45:02;100189.94;;;9.89;44.30
37848;BME280;23688;33.130;-117.188;2023-02-02T03:47:28;100192.03;;;9.79;41.70
37848;BME280;23688;33.130;-117.188;2023-02-02T03:49:55;100201.34;;;9.76;42.53
37848;BME280;23688;33.130;-117.188;2023-02-02T03:52:22;100208.88;;;9.71;41.81
37848;BME280;23688;33.130;-117.188;2023-02-02T03:54:48;100199.84;;;9.64;42.77
37848;BME280;23688;33.130;-117.188;2023-02-02T03:57:15;100207.53;;;9.63;42.92
37848;BME280;23688;33.130;-117.188;2023-02-02T03:59:41;100212.53;;;9.60;43.70
37848;BME280;23688;33.130;-117.188;2023-02-02T04:02:08;100201.03;;;9.55;43.12
37848;BME280;23688;33.130;-117.188;2023-02-02T04:04:34;100206.66;;;9.48;43.73
37848;BME280;23688;33.130;-117.188;2023-02-02T04:07:00;100212.84;;;9.50;44.79
37848;BME280;23688;33.130;-117.188;2023-02-02T04:09:27;100204.25;;;9.36;45.37
37848;BME280;23688;33.130;-117.188;2023-02-02T04:11:54;100189.16;;;9.29;46.39
37848;BME280;23688;33.130;-117.188;2023-02-02T04:14:20;100208.00;;;9.41;46.65
37848;BME280;23688;33.130;-117.188;2023-02-02T04:16:46;100204.38;;;9.37;46.08
37848;BME280;23688;33.130;-117.188;2023-02-02T04:19:12;100206.59;;;9.31;45.16
37848;BME280;23688;33.130;-117.188;2023-02-02T04:21:39;100209.56;;;9.23;46.42
37848;BME280;23688;33.130;-117.188;2023-02-02T04:24:16;100215.09;;;9.14;47.52
37848;BME280;23688;33.130;-117.188;2023-02-02T04:26:43;100218.47;;;8.98;48.77
37848;BME280;23688;33.130;-117.188;2023-02-02T04:29:11;100216.88;;;8.85;49.23
37848;BME280;23688;33.130;-117.188;2023-02-02T04:31:37;100226.53;;;8.88;50.27
37848;BME280;23688;33.130;-117.188;2023-02-02T04:34:04;100223.22;;;8.90;51.26
37848;BME280;23688;33.130;-117.188;2023-02-02T04:36:30;100232.31;;;8.98;51.52
37848;BME280;23688;33.130;-117.188;2023-02-02T04:38:56;100232.50;;;9.02;52.35
37848;BME280;23688;33.130;-117.188;2023-02-02T04:41:23;100237.31;;;8.95;52.60
37848;BME280;23688;33.130;-117.188;2023-02-02T04:43:49;100239.91;;;8.95;53.32
37848;BME280;23688;33.130;-117.188;2023-02-02T04:46:16;100232.47;;;8.87;54.52
37848;BME280;23688;33.130;-117.188;2023-02-02T08:47:41;100341.13;;;6.75;71.28
37848;BME280;23688;33.130;-117.188;2023-02-02T08:50:08;100340.59;;;6.68;71.87
37848;BME280;23688;33.130;-117.188;2023-02-02T08:52:34;100337.06;;;6.54;72.00
37848;BME280;23688;33.130;-117.188;2023-02-02T08:55:00;100348.78;;;6.62;72.68
37848;BME280;23688;33.130;-117.188;2023-02-02T08:57:27;100338.69;;;6.65;73.13
37848;BME280;23688;33.130;-117.188;2023-02-02T08:59:53;100330.94;;;6.65;73.09
37848;BME280;23688;33.130;-117.188;2023-02-02T09:02:19;100338.53;;;6.75;73.21
37848;BME280;23688;33.130;-117.188;2023-02-02T09:04:46;100337.66;;;6.75;72.79
37848;BME280;23688;33.130;-117.188;2023-02-02T09:07:13;100340.91;;;6.72;72.34
37848;BME280;23688;33.130;-117.188;2023-02-02T09:09:41;100338.69;;;6.65;72.35
37848;BME280;23688;33.130;-117.188;2023-02-02T09:12:07;100335.09;;;6.63;71.86
37848;BME280;23688;33.130;-117.188;2023-02-02T09:14:33;100338.25;;;6.71;70.73
37848;BME280;23688;33.130;-117.188;2023-02-02T09:17:00;100343.59;;;6.74;70.63
37848;BME280;23688;33.130;-117.188;2023-02-02T09:19:26;100345.38;;;6.75;70.23
37848;BME280;23688;33.130;-117.188;2023-02-02T09:21:52;100346.06;;;6.72;70.17
37848;BME280;23688;33.130;-117.188;2023-02-02T09:24:18;100331.94;;;6.67;70.30
37848;BME280;23688;33.130;-117.188;2023-02-02T09:26:45;100343.69;;;6.75;70.61
37848;BME280;23688;33.130;-117.188;2023-02-02T09:29:13;100341.72;;;6.71;70.45
37848;BME280;23688;33.130;-117.188;2023-02-02T09:31:40;100343.06;;;6.66;69.93
37848;BME280;23688;33.130;-117.188;2023-02-02T09:34:09;100331.97;;;6.55;70.66
37848;BME280;23688;33.130;-117.188;2023-02-02T09:36:37;100332.88;;;6.56;71.09
37848;BME280;23688;33.130;-117.188;2023-02-02T09:39:05;100333.13;;;6.47;71.93
37848;BME280;23688;33.130;-117.188;2023-02-02T09:44:29;100344.81;;;6.30;71.98
37848;BME280;23688;33.130;-117.188;2023-02-02T09:52:02;100354.13;;;6.28;72.48
37848;BME280;23688;33.130;-117.188;2023-02-02T09:54:43;100364.09;;;6.24;71.98
37848;BME280;23688;33.130;-117.188;2023-02-02T09:57:24;100359.19;;;6.15;72.15
37848;BME280;23688;33.130;-117.188;2023-02-02T09:59:53;100351.56;;;6.05;72.51
37848;BME280;23688;33.130;-117.188;2023-02-02T10:02:30;100355.94;;;6.06;72.48
37848;BME280;23688;33.130;-117.188;2023-02-02T10:05:07;100367.69;;;6.02;72.44
37848;BME280;23688;33.130;-117.188;2023-02-02T10:07:44;100363.47;;;6.03;71.68
37848;BME280;23688;33.130;-117.188;2023-02-02T10:10:26;100359.75;;;5.99;72.22
37848;BME280;23688;33.130;-117.188;2023-02-02T10:13:14;100358.06;;;5.88;72.27
37848;BME280;23688;33.130;-117.188;2023-02-02T10:18:41;100373.38;;;5.86;72.33
37848;BME280;23688;33.130;-117.188;2023-02-02T10:21:12;100352.22;;;5.78;72.04
37848;BME280;23688;33.130;-117.188;2023-02-02T10:23:44;100351.53;;;5.81;71.84
37848;BME280;23688;33.130;-117.188;2023-02-02T10:32:12;100344.81;;;5.83;70.25
37848;BME280;23688;33.130;-117.188;2023-02-02T10:34:55;100355.47;;;5.99;71.00
37848;BME280;23688;33.130;-117.188;2023-02-02T10:37:56;100355.06;;;6.05;70.63
37848;BME280;23688;33.130;-117.188;2023-02-02T10:40:48;100342.84;;;6.03;70.15
37848;BME280;23688;33.130;-117.188;2023-02-02T10:43:36;100345.19;;;6.11;69.68
37848;BME280;23688;33.130;-117.188;2023-02-02T10:46:16;100339.69;;;6.07;70.22
37848;BME280;23688;33.130;-117.188;2023-02-02T10:48:46;100350.31;;;5.99;70.17
37848;BME280;23688;33.130;-117.188;2023-02-02T10:51:29;100342.25;;;6.07;69.50
37848;BME280;23688;33.130;-117.188;2023-02-02T10:53:59;100338.03;;;6.07;69.28
37848;BME280;23688;33.130;-117.188;2023-02-02T10:56:40;100329.28;;;6.05;68.57
37848;BME280;23688;33.130;-117.188;2023-02-02T10:59:15;100328.69;;;6.09;68.01
37848;BME280;23688;33.130;-117.188;2023-02-02T11:01:44;100329.03;;;6.14;68.13
37848;BME280;23688;33.130;-117.188;2023-02-02T11:04:11;100326.56;;;6.15;67.02
37848;BME280;23688;33.130;-117.188;2023-02-02T11:06:55;100307.72;;;6.16;66.85
37848;BME280;23688;33.130;-117.188;2023-02-02T11:09:31;100324.53;;;6.23;66.91
37848;BME280;23688;33.130;-117.188;2023-02-02T11:14:58;100324.06;;;6.29;65.35
37848;BME280;23688;33.130;-117.188;2023-02-02T11:17:27;100325.56;;;6.25;66.07
37848;BME280;23688;33.130;-117.188;2023-02-02T11:19:54;100325.56;;;6.25;65.84
37848;BME280;23688;33.130;-117.188;2023-02-02T11:24:54;100313.00;;;6.18;65.59
37848;BME280;23688;33.130;-117.188;2023-02-02T11:27:25;100325.22;;;6.20;64.47
37848;BME280;23688;33.130;-117.188;2023-02-02T11:29:54;100325.44;;;6.24;63.59
37848;BME280;23688;33.130;-117.188;2023-02-02T11:37:27;100307.28;;;6.22;63.19
37848;BME280;23688;33.130;-117.188;2023-02-02T11:39:54;100314.22;;;6.23;64.14
37848;BME280;23688;33.130;-117.188;2023-02-02T11:42:45;100312.22;;;6.19;63.77
37848;BME280;23688;33.130;-117.188;2023-02-02T11:45:18;100316.59;;;6.20;63.91
37848;BME280;23688;33.130;-117.188;2023-02-02T11:47:50;100297.75;;;6.09;64.15
37848;BME280;23688;33.130;-117.188;2023-02-02T11:50:25;100310.63;;;6.21;64.29
37848;BME280;23688;33.130;-117.188;2023-02-02T11:52:52;100321.75;;;6.20;64.96
37848;BME280;23688;33.130;-117.188;2023-02-02T11:55:31;100319.50;;;6.13;64.80
37848;BME280;23688;33.130;-117.188;2023-02-02T12:00:52;100331.19;;;6.08;64.60
37848;BME280;23688;33.130;-117.188;2023-02-02T12:05:52;100334.53;;;6.07;64.68
37848;BME280;23688;33.130;-117.188;2023-02-02T12:08:19;100329.16;;;6.04;64.30
37848;BME280;23688;33.130;-117.188;2023-02-02T12:11:02;100308.19;;;5.99;64.00
37848;BME280;23688;33.130;-117.188;2023-02-02T12:38:48;100336.00;;;6.15;62.68
37848;BME280;23688;33.130;-117.188;2023-02-02T12:44:00;100332.41;;;6.01;63.60
37848;BME280;23688;33.130;-117.188;2023-02-02T12:52:04;100335.19;;;5.81;65.56
37848;BME280;23688;33.130;-117.188;2023-02-02T12:57:28;100356.47;;;5.78;65.24
37848;BME280;23688;33.130;-117.188;2023-02-02T13:03:45;100361.69;;;5.68;66.19
37848;BME280;23688;33.130;-117.188;2023-02-02T13:06:54;100365.75;;;5.64;66.72
37848;BME280;23688;33.130;-117.188;2023-02-02T13:09:44;100369.44;;;5.56;66.85
37848;BME280;23688;33.130;-117.188;2023-02-02T13:12:15;100364.84;;;5.52;66.76
37848;BME280;23688;33.130;-117.188;2023-02-02T13:14:53;100380.63;;;5.56;67.44
37848;BME280;23688;33.130;-117.188;2023-02-02T13:17:47;100376.56;;;5.48;66.91
37848;BME280;23688;33.130;-117.188;2023-02-02T13:20:43;100393.25;;;5.53;66.80
37848;BME280;23688;33.130;-117.188;2023-02-02T13:23:24;100378.22;;;5.36;67.21
37848;BME280;23688;33.130;-117.188;2023-02-02T13:25:59;100400.50;;;5.35;67.95
37848;BME280;23688;33.130;-117.188;2023-02-02T13:30:58;100400.44;;;5.24;68.52
37848;BME280;23688;33.130;-117.188;2023-02-02T13:33:31;100394.41;;;5.23;68.38
37848;BME280;23688;33.130;-117.188;2023-02-02T13:36:22;100417.94;;;5.28;69.65
37848;BME280;23688;33.130;-117.188;2023-02-02T13:38:56;100428.97;;;5.15;70.26
37848;BME280;23688;33.130;-117.188;2023-02-02T13:41:23;100428.25;;;5.06;70.49
37848;BME280;23688;33.130;-117.188;2023-02-02T13:44:16;100427.00;;;5.01;70.91
37848;BME280;23688;33.130;-117.188;2023-02-02T13:47:10;100422.59;;;5.00;68.32
37848;BME280;23688;33.130;-117.188;2023-02-02T13:49:49;100424.66;;;5.04;65.32
37848;BME280;23688;33.130;-117.188;2023-02-02T13:52:47;100425.00;;;5.08;64.51
37848;BME280;23688;33.130;-117.188;2023-02-02T13:55:48;100438.31;;;5.25;65.04
37848;BME280;23688;33.130;-117.188;2023-02-02T13:58:37;100445.75;;;5.22;66.47
37848;BME280;23688;33.130;-117.188;2023-02-02T14:01:11;100438.69;;;5.07;67.90
37848;BME280;23688;33.130;-117.188;2023-02-02T14:03:44;100445.06;;;5.12;67.49
37848;BME280;23688;33.130;-117.188;2023-02-02T14:06:18;100457.81;;;5.11;67.65
37848;BME280;23688;33.130;-117.188;2023-02-02T14:08:55;100455.91;;;5.08;68.21
37848;BME280;23688;33.130;-117.188;2023-02-02T14:11:34;100460.69;;;5.04;69.49
37848;BME280;23688;33.130;-117.188;2023-02-02T14:14:09;100466.72;;;5.04;69.65
37848;BME280;23688;33.130;-117.188;2023-02-02T14:16:59;100466.63;;;5.03;69.70
37848;BME280;23688;33.130;-117.188;2023-02-02T14:38:05;100496.03;;;4.84;68.45
37848;BME280;23688;33.130;-117.188;2023-02-02T14:43:24;100502.19;;;4.86;67.74
37848;BME280;23688;33.130;-117.188;2023-02-02T14:49:09;100515.31;;;4.89;67.69
37848;BME280;23688;33.130;-117.188;2023-02-02T14:51:42;100499.38;;;4.83;66.60
37848;BME280;23688;33.130;-117.188;2023-02-02T14:54:19;100499.25;;;4.82;65.96
37848;BME280;23688;33.130;-117.188;2023-02-02T14:57:36;100516.47;;;4.93;65.92
37848;BME280;23688;33.130;-117.188;2023-02-02T14:59:38;100528.03;;;4.98;67.42
37848;BME280;23688;33.130;-117.188;2023-02-02T15:02:37;100545.00;;;4.96;67.81
37848;BME280;23688;33.130;-117.188;2023-02-02T15:08:26;100535.88;;;4.89;68.08
37848;BME280;23688;33.130;-117.188;2023-02-02T15:10:56;100550.28;;;4.98;67.15
37848;BME280;23688;33.130;-117.188;2023-02-02T15:13:27;100544.22;;;4.97;66.70
37848;BME280;23688;33.130;-117.188;2023-02-02T15:16:14;100557.81;;;5.06;67.42
37848;BME280;23688;33.130;-117.188;2023-02-02T15:18:51;100564.91;;;5.09;65.54
37848;BME280;23688;33.130;-117.188;2023-02-02T15:21:23;100565.63;;;5.18;62.23
37848;BME280;23688;33.130;-117.188;2023-02-02T15:23:49;100569.84;;;5.28;61.61
37848;BME280;23688;33.130;-117.188;2023-02-02T15:26:29;100578.31;;;5.37;62.93
37848;BME280;23688;33.130;-117.188;2023-02-02T15:29:07;100560.13;;;5.35;63.41
37848;BME280;23688;33.130;-117.188;2023-02-02T15:31:47;100581.66;;;5.58;64.40
37848;BME280;23688;33.130;-117.188;2023-02-02T15:34:41;100584.19;;;5.68;61.34
37848;BME280;23688;33.130;-117.188;2023-02-02T15:37:18;100573.44;;;5.74;58.97
37848;BME280;23688;33.130;-117.188;2023-02-02T15:39:50;100549.59;;;5.76;59.84
37848;BME280;23688;33.130;-117.188;2023-02-02T15:42:22;100587.81;;;6.04;61.62
37848;BME280;23688;33.130;-117.188;2023-02-02T15:47:56;100571.78;;;6.30;60.14
37848;BME280;23688;33.130;-117.188;2023-02-02T15:50:22;100585.38;;;6.51;59.26
37848;BME280;23688;33.130;-117.188;2023-02-02T15:52:50;100589.78;;;6.76;57.92
37848;BME280;23688;33.130;-117.188;2023-02-02T15:55:38;100591.59;;;7.00;55.81
37848;BME280;23688;33.130;-117.188;2023-02-02T16:01:15;100576.56;;;7.55;53.79
37848;BME280;23688;33.130;-117.188;2023-02-02T16:04:15;100603.59;;;7.97;52.58
37848;BME280;23688;33.130;-117.188;2023-02-02T16:06:43;100583.50;;;8.18;51.39
37848;BME280;23688;33.130;-117.188;2023-02-02T16:09:27;100570.78;;;8.46;48.97
37848;BME280;23688;33.130;-117.188;2023-02-02T16:11:56;100579.97;;;8.81;48.68
37848;BME280;23688;33.130;-117.188;2023-02-02T16:14:23;100578.78;;;9.03;48.63
37848;BME280;23688;33.130;-117.188;2023-02-02T16:16:50;100585.06;;;9.19;49.02
37848;BME280;23688;33.130;-117.188;2023-02-02T16:19:21;100592.19;;;9.50;49.93
37848;BME280;23688;33.130;-117.188;2023-02-02T16:22:02;100593.28;;;9.82;50.42
37848;BME280;23688;33.130;-117.188;2023-02-02T16:24:32;100587.13;;;10.08;47.72
37848;BME280;23688;33.130;-117.188;2023-02-02T16:27:01;100592.75;;;10.29;47.09
37848;BME280;23688;33.130;-117.188;2023-02-02T16:29:29;100594.38;;;10.57;46.99
37848;BME280;23688;33.130;-117.188;2023-02-02T16:31:56;100592.75;;;10.74;45.95
37848;BME280;23688;33.130;-117.188;2023-02-02T16:37:16;100607.59;;;11.06;46.46
37848;BME280;23688;33.130;-117.188;2023-02-02T16:39:47;100608.13;;;11.15;48.23
37848;BME280;23688;33.130;-117.188;2023-02-02T16:42:30;100611.50;;;11.29;46.43
37848;BME280;23688;33.130;-117.188;2023-02-02T16:44:59;100586.00;;;11.38;46.44
37848;BME280;23688;33.130;-117.188;2023-02-02T16:50:25;100615.38;;;11.83;43.90
37848;BME280;23688;33.130;-117.188;2023-02-02T16:55:21;100615.66;;;12.20;40.56
37848;BME280;23688;33.130;-117.188;2023-02-02T16:57:49;100613.28;;;12.41;39.88
37848;BME280;23688;33.130;-117.188;2023-02-02T17:00:27;100612.50;;;12.60;40.22
37848;BME280;23688;33.130;-117.188;2023-02-02T17:03:04;100613.22;;;12.74;38.38
37848;BME280;23688;33.130;-117.188;2023-02-02T17:05:33;100610.84;;;12.97;37.26
37848;BME280;23688;33.130;-117.188;2023-02-02T17:08:03;100623.22;;;13.19;36.35
37848;BME280;23688;33.130;-117.188;2023-02-02T17:10:35;100622.22;;;13.33;36.67
37848;BME280;23688;33.130;-117.188;2023-02-02T17:13:02;100617.19;;;13.56;35.70
37848;BME280;23688;33.130;-117.188;2023-02-02T17:15:41;100622.22;;;13.88;36.04
37848;BME280;23688;33.130;-117.188;2023-02-02T17:18:16;100615.28;;;14.08;34.66
37848;BME280;23688;33.130;-117.188;2023-02-02T17:20:42;100618.78;;;14.28;32.96
37848;BME280;23688;33.130;-117.188;2023-02-02T17:23:14;100619.47;;;14.44;34.00
37848;BME280;23688;33.130;-117.188;2023-02-02T17:25:43;100617.66;;;14.62;33.96
37848;BME280;23688;33.130;-117.188;2023-02-02T17:28:12;100610.56;;;14.79;33.28
37848;BME280;23688;33.130;-117.188;2023-02-02T17:30:43;100604.50;;;15.01;31.92
37848;BME280;23688;33.130;-117.188;2023-02-02T17:33:15;100610.28;;;15.15;31.97
37848;BME280;23688;33.130;-117.188;2023-02-02T17:35:43;100601.22;;;15.28;32.67
37848;BME280;23688;33.130;-117.188;2023-02-02T17:38:11;100605.19;;;15.40;31.75
37848;BME280;23688;33.130;-117.188;2023-02-02T17:40:39;100608.44;;;15.56;32.34
37848;BME280;23688;33.130;-117.188;2023-02-02T17:43:10;100617.53;;;15.66;31.93
37848;BME280;23688;33.130;-117.188;2023-02-02T17:45:37;100610.34;;;15.82;30.13
37848;BME280;23688;33.130;-117.188;2023-02-02T17:48:04;100618.72;;;15.96;31.72
37848;BME280;23688;33.130;-117.188;2023-02-02T17:50:32;100608.78;;;16.10;30.45
37848;BME280;23688;33.130;-117.188;2023-02-02T17:52:58;100616.13;;;16.20;31.48
37848;BME280;23688;33.130;-117.188;2023-02-02T17:55:31;100614.06;;;16.36;31.46
37848;BME280;23688;33.130;-117.188;2023-02-02T17:57:57;100605.63;;;16.44;29.72
37848;BME280;23688;33.130;-117.188;2023-02-02T18:00:25;100614.19;;;16.64;29.45
37848;BME280;23688;33.130;-117.188;2023-02-02T18:03:23;100615.84;;;16.61;29.75
37848;BME280;23688;33.130;-117.188;2023-02-02T18:05:59;100626.91;;;16.78;29.69
37848;BME280;23688;33.130;-117.188;2023-02-02T18:08:32;100612.69;;;16.71;28.43
37848;BME280;23688;33.130;-117.188;2023-02-02T18:10:59;100613.78;;;16.78;28.88
37848;BME280;23688;33.130;-117.188;2023-02-02T18:13:26;100604.72;;;16.94;28.77
37848;BME280;23688;33.130;-117.188;2023-02-02T18:15:53;100609.97;;;17.19;28.56
37848;BME280;23688;33.130;-117.188;2023-02-02T18:18:21;100606.63;;;17.25;25.33
37848;BME280;23688;33.130;-117.188;2023-02-02T18:20:49;100612.56;;;17.46;24.70
37848;BME280;23688;33.130;-117.188;2023-02-02T18:23:16;100616.75;;;17.68;25.32
37848;BME280;23688;33.130;-117.188;2023-02-02T18:25:43;100603.22;;;17.83;26.06
37848;BME280;23688;33.130;-117.188;2023-02-02T18:28:10;100591.97;;;17.89;24.36
37848;BME280;23688;33.130;-117.188;2023-02-02T18:30:39;100602.03;;;18.04;24.40
37848;BME280;23688;33.130;-117.188;2023-02-02T18:33:07;100608.38;;;18.10;24.20
37848;BME280;23688;33.130;-117.188;2023-02-02T18:35:35;100603.34;;;18.18;24.14
37848;BME280;23688;33.130;-117.188;2023-02-02T18:38:05;100598.41;;;17.99;23.79
37848;BME280;23688;33.130;-117.188;2023-02-02T18:40:31;100594.88;;;17.98;23.92
37848;BME280;23688;33.130;-117.188;2023-02-02T18:42:58;100599.88;;;17.89;23.35
37848;BME280;23688;33.130;-117.188;2023-02-02T18:45:24;100602.81;;;18.00;25.80
37848;BME280;23688;33.130;-117.188;2023-02-02T18:47:50;100592.97;;;17.92;25.82
37848;BME280;23688;33.130;-117.188;2023-02-02T18:50:17;100596.44;;;17.91;26.53
37848;BME280;23688;33.130;-117.188;2023-02-02T18:52:43;100591.81;;;17.83;26.74
37848;BME280;23688;33.130;-117.188;2023-02-02T18:55:09;100589.44;;;17.92;27.99
37848;BME280;23688;33.130;-117.188;2023-02-02T18:57:36;100579.13;;;17.98;28.68
37848;BME280;23688;33.130;-117.188;2023-02-02T19:00:03;100581.38;;;18.16;28.21
37848;BME280;23688;33.130;-117.188;2023-02-02T19:02:30;100584.22;;;18.24;32.36
37848;BME280;23688;33.130;-117.188;2023-02-02T19:04:56;100576.38;;;18.25;30.90
37848;BME280;23688;33.130;-117.188;2023-02-02T19:07:41;100583.94;;;17.83;29.23
37848;BME280;23688;33.130;-117.188;2023-02-02T19:10:19;100571.28;;;17.71;32.26